createdAt,value
2018-03-25T00:00:34.493Z,65.40
2018-03-25T00:03:02.397Z,65.40
2018-03-25T00:05:31.147Z,66.90
2018-03-25T00:07:58.971Z,66.80
2018-03-25T00:10:26.850Z,67.50
2018-03-25T00:12:54.516Z,66.70
2018-03-25T00:15:22.241Z,67.50
2018-03-25T00:17:49.889Z,68.30
2018-03-25T00:20:18.783Z,67.60
2018-03-25T00:22:47.339Z,67.70
2018-03-25T00:25:15.141Z,67.70
2018-03-25T00:27:44.166Z,67.60
2018-03-25T00:30:11.881Z,67.50
2018-03-25T00:32:41.533Z,68.60
2018-03-25T00:35:09.501Z,67.70
2018-03-25T00:37:37.181Z,68.00
2018-03-25T00:40:05.090Z,68.30
2018-03-25T00:42:33.979Z,68.70
2018-03-25T00:45:02.129Z,69.00
2018-03-25T00:47:29.861Z,69.20
2018-03-25T00:49:57.570Z,69.30
2018-03-25T00:52:25.390Z,69.60
2018-03-25T00:54:53.824Z,69.60
2018-03-25T00:57:22.720Z,69.50
2018-03-25T00:59:51.502Z,69.30
2018-03-25T01:02:19.366Z,69.30
2018-03-25T01:04:47.252Z,69.30
2018-03-25T01:07:16.336Z,69.30
2018-03-25T01:09:44.821Z,69.10
2018-03-25T01:12:12.724Z,69.20
2018-03-25T01:14:41.662Z,69.20
2018-03-25T01:17:09.507Z,69.30
2018-03-25T01:19:37.228Z,69.30
2018-03-25T01:22:05.226Z,69.30
2018-03-25T01:24:33.927Z,69.20
2018-03-25T01:27:01.618Z,69.10
2018-03-25T01:29:30.543Z,69.20
2018-03-25T01:31:58.260Z,69.30
2018-03-25T01:34:26.880Z,69.80
2018-03-25T01:36:54.698Z,69.30
2018-03-25T01:39:22.588Z,69.50
2018-03-25T01:41:50.373Z,69.60
2018-03-25T01:44:18.048Z,69.70
2018-03-25T01:46:45.766Z,69.70
2018-03-25T01:49:14.531Z,70.30
2018-03-25T01:51:42.253Z,69.80
2018-03-25T01:54:10.036Z,70.00
2018-03-25T01:56:37.749Z,69.80
2018-03-25T01:59:06.191Z,69.80
2018-03-25T02:01:34.064Z,69.80
2018-03-25T02:04:01.776Z,69.80
2018-03-25T02:06:36.373Z,70.20
2018-03-25T02:09:04.127Z,70.20
2018-03-25T02:11:31.854Z,70.20
2018-03-25T02:13:59.576Z,70.20
2018-03-25T02:16:28.272Z,70.20
2018-03-25T02:18:56.619Z,70.30
2018-03-25T02:21:24.376Z,70.50
2018-03-25T02:23:52.368Z,70.50
2018-03-25T02:26:28.985Z,69.80
2018-03-25T02:28:56.650Z,70.30
2018-03-25T02:31:26.223Z,70.20
2018-03-25T02:33:53.941Z,70.20
2018-03-25T02:36:22.337Z,70.40
2018-03-25T02:38:50.112Z,70.10
2018-03-25T02:41:17.800Z,70.00
2018-03-25T02:43:45.538Z,70.40
2018-03-25T02:46:13.999Z,70.70
2018-03-25T02:48:41.777Z,70.50
2018-03-25T02:51:10.323Z,70.50
2018-03-25T02:53:38.227Z,70.50
2018-03-25T02:56:08.748Z,70.20
2018-03-25T02:58:37.449Z,70.30
2018-03-25T03:01:05.145Z,70.60
2018-03-25T03:03:33.009Z,70.90
2018-03-25T03:06:01.044Z,71.20
2018-03-25T03:08:28.878Z,71.40
2018-03-25T03:10:57.250Z,71.70
2018-03-25T03:13:25.476Z,71.70
2018-03-25T03:15:56.218Z,71.80
2018-03-25T03:18:24.052Z,72.00
2018-03-25T03:20:51.740Z,71.90
2018-03-25T03:23:19.522Z,72.20
2018-03-25T03:25:47.382Z,72.20
2018-03-25T03:28:15.097Z,72.60
2018-03-25T03:30:42.966Z,72.50
2018-03-25T03:33:11.607Z,72.60
2018-03-25T03:35:40.216Z,72.20
2018-03-25T03:38:07.911Z,72.20
2018-03-25T03:40:36.395Z,72.80
2018-03-25T03:43:04.953Z,72.60
2018-03-25T03:45:32.792Z,72.60
2018-03-25T03:48:01.047Z,72.60
2018-03-25T03:50:28.861Z,72.30
2018-03-25T03:52:57.090Z,72.10
2018-03-25T03:55:24.858Z,71.70
2018-03-25T03:57:52.537Z,72.00
2018-03-25T04:00:20.333Z,72.10
2018-03-25T04:02:48.205Z,71.80
2018-03-25T04:05:16.021Z,72.10
2018-03-25T04:07:43.648Z,72.60
2018-03-25T04:10:11.395Z,72.30
2018-03-25T04:12:40.070Z,72.60
2018-03-25T04:15:07.744Z,72.80
2018-03-25T04:17:35.463Z,72.70
2018-03-25T04:20:03.212Z,72.60
2018-03-25T04:22:31.060Z,72.40
2018-03-25T04:24:59.701Z,72.20
2018-03-25T04:27:27.426Z,72.10
2018-03-25T04:29:55.353Z,71.90
2018-03-25T04:32:23.909Z,72.20
2018-03-25T04:34:51.855Z,72.30
2018-03-25T04:37:19.672Z,72.40
2018-03-25T04:39:49.194Z,72.80
2018-03-25T04:42:17.903Z,73.30
2018-03-25T04:44:45.636Z,73.20
2018-03-25T04:47:13.505Z,73.90
2018-03-25T04:49:41.666Z,74.40
2018-03-25T04:52:09.618Z,74.80
2018-03-25T04:54:38.074Z,75.30
2018-03-25T04:57:05.698Z,75.30
2018-03-25T04:59:33.479Z,75.30
2018-03-25T05:02:01.287Z,75.70
2018-03-25T05:04:29.199Z,74.80
2018-03-25T05:06:56.925Z,74.60
2018-03-25T05:09:24.761Z,74.80
2018-03-25T05:11:53.068Z,74.30
2018-03-25T05:14:21.718Z,73.90
2018-03-25T05:16:49.411Z,74.00
2018-03-25T05:19:17.132Z,74.00
2018-03-25T05:21:44.961Z,73.90
2018-03-25T05:24:12.653Z,74.00
2018-03-25T05:26:40.431Z,73.80
2018-03-25T05:29:09.174Z,73.80
2018-03-25T05:31:36.892Z,73.90
2018-03-25T05:34:04.625Z,74.30
2018-03-25T05:36:32.592Z,74.70
2018-03-25T05:39:00.371Z,74.70
2018-03-25T05:41:28.167Z,74.60
2018-03-25T05:43:55.837Z,75.00
2018-03-25T05:46:23.851Z,75.00
2018-03-25T05:48:51.861Z,75.00
2018-03-25T05:51:19.589Z,75.00
2018-03-25T05:53:47.419Z,74.90
2018-03-25T05:56:15.891Z,75.50
2018-03-25T05:58:43.562Z,75.50
2018-03-25T06:01:12.511Z,75.40
2018-03-25T06:03:40.374Z,75.20
2018-03-25T06:06:08.222Z,74.90
2018-03-25T06:08:36.032Z,74.60
2018-03-25T06:11:04.262Z,74.30
2018-03-25T06:13:32.108Z,74.40
2018-03-25T06:16:00.224Z,74.40
2018-03-25T06:18:27.870Z,74.60
2018-03-25T06:20:55.765Z,74.60
2018-03-25T06:23:24.436Z,74.70
2018-03-25T06:25:52.175Z,74.70
2018-03-25T06:28:20.160Z,75.00
2018-03-25T06:30:47.805Z,74.60
2018-03-25T06:33:15.858Z,74.20
2018-03-25T06:35:44.648Z,74.20
2018-03-25T06:38:13.604Z,74.10
2018-03-25T06:40:41.269Z,74.10
2018-03-25T06:43:09.074Z,74.10
2018-03-25T06:45:36.970Z,74.10
2018-03-25T06:48:04.647Z,74.20
2018-03-25T06:50:32.386Z,74.30
2018-03-25T06:53:00.042Z,74.30
2018-03-25T06:55:27.859Z,74.20
2018-03-25T06:57:55.563Z,74.20
2018-03-25T07:00:23.399Z,74.00
2018-03-25T07:02:51.350Z,73.60
2018-03-25T07:05:19.050Z,73.00
2018-03-25T07:07:46.798Z,73.00
2018-03-25T07:10:14.593Z,73.00
2018-03-25T07:12:42.355Z,72.80
2018-03-25T07:15:10.059Z,73.10
2018-03-25T07:17:37.811Z,72.70
2018-03-25T07:20:05.512Z,72.70
2018-03-25T07:22:33.389Z,72.80
2018-03-25T07:25:01.091Z,72.60
2018-03-25T07:27:28.941Z,72.30
2018-03-25T07:29:56.787Z,72.20
2018-03-25T07:32:25.222Z,71.80
2018-03-25T07:34:53.060Z,71.70
2018-03-25T07:37:21.096Z,71.30
2018-03-25T07:39:52.124Z,71.10
2018-03-25T07:42:20.936Z,71.30
2018-03-25T07:44:48.623Z,71.30
2018-03-25T07:47:17.253Z,70.80
2018-03-25T07:49:45.095Z,70.50
2018-03-25T07:52:12.964Z,70.30
2018-03-25T07:54:40.853Z,69.90
2018-03-25T07:57:09.303Z,68.40
2018-03-25T07:59:37.081Z,68.40
2018-03-25T08:02:05.005Z,68.90
2018-03-25T08:04:32.787Z,69.20
2018-03-25T08:07:00.678Z,69.70
2018-03-25T08:09:29.333Z,69.00
2018-03-25T08:11:57.626Z,68.20
2018-03-25T08:14:29.811Z,68.20
2018-03-25T08:16:58.525Z,68.40
2018-03-25T08:19:26.562Z,67.60
2018-03-25T08:21:55.311Z,66.80
2018-03-25T08:24:23.195Z,66.70
2018-03-25T08:26:51.092Z,65.80
2018-03-25T08:29:19.287Z,65.80
2018-03-25T08:31:47.119Z,66.20
2018-03-25T08:34:16.046Z,66.40
2018-03-25T08:36:44.730Z,66.10
2018-03-25T08:39:13.423Z,65.40
2018-03-25T08:41:41.318Z,65.30
2018-03-25T08:44:09.100Z,65.50
2018-03-25T08:46:36.963Z,65.40
2018-03-25T08:49:08.547Z,65.30
2018-03-25T08:51:36.483Z,65.40
2018-03-25T08:54:04.364Z,64.50
2018-03-25T08:56:32.359Z,63.90
2018-03-25T08:59:00.755Z,63.10
2018-03-25T09:01:31.055Z,63.10
2018-03-25T09:03:58.871Z,62.20
2018-03-25T09:06:26.796Z,60.20
2018-03-25T09:08:54.538Z,61.40
2018-03-25T09:11:24.096Z,60.60
2018-03-25T09:13:56.632Z,57.90
2018-03-25T09:16:26.235Z,56.00
2018-03-25T09:18:53.984Z,56.00
2018-03-25T09:21:22.805Z,51.40
2018-03-25T09:23:57.846Z,51.40
2018-03-25T09:26:26.589Z,46.00
2018-03-25T09:28:54.458Z,47.40
2018-03-25T09:31:24.161Z,44.80
2018-03-25T09:33:51.930Z,43.10
2018-03-25T09:36:20.598Z,42.40
2018-03-25T09:38:48.444Z,40.50
2018-03-25T09:41:16.437Z,38.10
2018-03-25T09:43:44.261Z,38.10
2018-03-25T09:46:12.796Z,37.20
2018-03-25T09:48:44.179Z,37.50
2018-03-25T09:51:11.812Z,37.90
2018-03-25T09:53:43.057Z,37.00
2018-03-25T09:56:10.918Z,36.20
2018-03-25T09:58:38.666Z,33.00
2018-03-25T10:01:11.945Z,32.70
2018-03-25T10:03:40.621Z,33.80
2018-03-25T10:06:08.422Z,34.90
2018-03-25T10:08:36.588Z,31.60
2018-03-25T10:11:05.216Z,31.80
2018-03-25T10:13:34.241Z,33.00
2018-03-25T10:16:02.097Z,33.10
2018-03-25T10:18:30.217Z,31.90
2018-03-25T10:21:03.277Z,32.00
2018-03-25T10:23:31.001Z,32.00
2018-03-25T10:25:59.491Z,28.70
2018-03-25T10:28:27.161Z,28.70
2018-03-25T10:31:00.651Z,30.80
2018-03-25T10:33:28.327Z,29.10
2018-03-25T10:35:56.988Z,29.80
2018-03-25T10:38:25.437Z,32.40
2018-03-25T10:40:53.312Z,32.50
2018-03-25T10:43:21.045Z,30.50
2018-03-25T10:45:48.747Z,30.10
2018-03-25T10:48:17.229Z,29.20
2018-03-25T10:50:45.785Z,28.30
2018-03-25T10:53:13.661Z,28.30
2018-03-25T10:55:45.739Z,29.60
2018-03-25T10:58:14.225Z,29.20
2018-03-25T11:00:46.280Z,28.70
2018-03-25T11:03:14.046Z,28.60
2018-03-25T11:05:41.720Z,30.40
2018-03-25T11:08:10.264Z,29.10
2018-03-25T11:10:38.031Z,29.10
2018-03-25T11:13:06.654Z,29.50
2018-03-25T11:15:35.163Z,32.90
2018-03-25T11:18:03.844Z,32.80
2018-03-25T11:20:31.892Z,31.50
2018-03-25T11:23:00.911Z,32.10
2018-03-25T11:25:35.461Z,31.20
2018-03-25T11:28:03.378Z,30.00
2018-03-25T11:30:33.186Z,32.90
2018-03-25T11:33:00.877Z,32.60
2018-03-25T11:35:28.644Z,33.00
2018-03-25T11:37:56.337Z,33.20
2018-03-25T11:40:24.241Z,34.70
2018-03-25T11:42:52.022Z,32.80
2018-03-25T11:45:20.517Z,33.80
2018-03-25T11:47:48.827Z,33.40
2018-03-25T11:50:16.789Z,31.80
2018-03-25T11:52:44.599Z,33.50
2018-03-25T11:55:18.823Z,37.40
2018-03-25T11:57:46.565Z,37.40
2018-03-25T12:00:14.536Z,34.70
2018-03-25T12:02:43.215Z,35.30
2018-03-25T12:05:11.048Z,35.30
2018-03-25T12:07:38.930Z,33.30
2018-03-25T12:10:06.720Z,34.00
2018-03-25T12:12:34.470Z,33.00
2018-03-25T12:15:02.153Z,33.00
2018-03-25T12:17:31.966Z,34.10
2018-03-25T12:20:03.600Z,32.90
2018-03-25T12:22:32.140Z,34.30
2018-03-25T12:24:59.855Z,34.20
2018-03-25T12:27:28.406Z,33.90
2018-03-25T12:29:56.171Z,34.60
2018-03-25T12:32:24.709Z,33.60
2018-03-25T12:34:52.622Z,33.60
2018-03-25T12:37:20.741Z,35.00
2018-03-25T12:39:49.465Z,35.10
2018-03-25T12:42:17.241Z,35.20
2018-03-25T12:44:45.670Z,35.30
2018-03-25T12:47:13.370Z,32.80
2018-03-25T12:49:44.208Z,34.20
2018-03-25T12:52:11.955Z,35.30
2018-03-25T12:54:40.669Z,36.20
2018-03-25T12:57:08.462Z,35.70
2018-03-25T12:59:37.203Z,32.30
2018-03-25T13:02:06.577Z,32.20
2018-03-25T13:04:34.648Z,33.00
2018-03-25T13:07:03.096Z,32.10
2018-03-25T13:09:31.021Z,34.50
2018-03-25T13:11:58.949Z,32.50
2018-03-25T13:14:30.225Z,32.30
2018-03-25T13:16:57.985Z,31.20
2018-03-25T13:19:29.020Z,31.70
2018-03-25T13:21:56.702Z,32.60
2018-03-25T13:24:24.573Z,32.30
2018-03-25T13:26:52.295Z,31.40
2018-03-25T13:29:20.038Z,32.10
2018-03-25T13:31:52.268Z,32.40
2018-03-25T13:34:19.976Z,32.40
2018-03-25T13:36:48.484Z,33.10
2018-03-25T13:39:16.152Z,33.10
2018-03-25T13:41:43.934Z,33.40
2018-03-25T13:44:11.717Z,34.30
2018-03-25T13:46:40.219Z,35.70
2018-03-25T13:49:07.934Z,35.60
2018-03-25T13:51:35.927Z,33.90
2018-03-25T13:54:03.723Z,31.80
2018-03-25T13:56:34.712Z,33.80
2018-03-25T13:59:02.393Z,34.20
2018-03-25T14:01:30.136Z,35.60
2018-03-25T14:03:58.570Z,34.90
2018-03-25T14:06:26.996Z,35.60
2018-03-25T14:08:54.698Z,35.50
2018-03-25T14:11:22.389Z,34.70
2018-03-25T14:13:50.213Z,35.20
2018-03-25T14:16:17.970Z,36.00
2018-03-25T14:18:45.863Z,36.60
2018-03-25T14:21:14.310Z,35.20
2018-03-25T14:23:43.198Z,35.20
2018-03-25T14:26:10.933Z,36.30
2018-03-25T14:28:39.959Z,34.80
2018-03-25T14:31:18.652Z,36.80
2018-03-25T14:33:47.532Z,36.90
2018-03-25T14:36:20.431Z,38.00
2018-03-25T14:38:48.917Z,36.50
2018-03-25T14:41:17.345Z,35.60
2018-03-25T14:43:46.018Z,36.80
2018-03-25T14:46:14.208Z,36.70
2018-03-25T14:48:42.410Z,36.00
2018-03-25T14:51:10.038Z,36.60
2018-03-25T14:53:39.601Z,35.90
2018-03-25T14:56:07.318Z,35.90
2018-03-25T14:58:35.902Z,35.90
2018-03-25T15:01:07.249Z,35.90
2018-03-25T15:03:35.972Z,35.40
2018-03-25T15:06:03.721Z,35.40
2018-03-25T15:08:31.524Z,36.30
2018-03-25T15:10:59.262Z,37.50
2018-03-25T15:13:27.210Z,35.20
2018-03-25T15:15:55.678Z,36.80
2018-03-25T15:18:24.126Z,36.00
2018-03-25T15:20:54.564Z,36.00
2018-03-25T15:23:23.111Z,35.10
2018-03-25T15:25:51.315Z,35.00
2018-03-25T15:28:18.996Z,36.40
2018-03-25T15:30:47.673Z,36.00
2018-03-25T15:33:15.380Z,36.20
2018-03-25T15:35:46.832Z,36.60
2018-03-25T15:38:15.562Z,35.90
2018-03-25T15:40:44.893Z,36.50
2018-03-25T15:43:12.607Z,36.00
2018-03-25T15:45:40.437Z,36.90
2018-03-25T15:48:08.183Z,36.10
2018-03-25T15:50:35.993Z,35.30
2018-03-25T15:53:03.813Z,36.00
2018-03-25T15:55:32.566Z,37.60
2018-03-25T15:58:00.338Z,37.30
2018-03-25T16:00:31.560Z,36.80
2018-03-25T16:03:00.256Z,36.20
2018-03-25T16:05:30.081Z,36.40
2018-03-25T16:07:57.941Z,37.40
2018-03-25T16:10:25.701Z,36.50
2018-03-25T16:12:53.678Z,37.30
2018-03-25T16:15:25.503Z,36.40
2018-03-25T16:17:54.199Z,37.20
2018-03-25T16:20:21.923Z,38.60
2018-03-25T16:22:49.640Z,38.30
2018-03-25T16:25:19.502Z,40.50
2018-03-25T16:27:49.093Z,40.40
2018-03-25T16:30:17.756Z,38.60
2018-03-25T16:32:46.259Z,38.90
2018-03-25T16:35:14.174Z,38.80
2018-03-25T16:37:42.007Z,39.90
2018-03-25T16:40:15.764Z,39.80
2018-03-25T16:42:43.916Z,39.80
2018-03-25T16:45:15.013Z,39.70
2018-03-25T16:47:42.755Z,40.40
2018-03-25T16:50:15.315Z,42.30
2018-03-25T16:52:43.111Z,42.30
2018-03-25T16:55:11.130Z,40.90
2018-03-25T16:57:41.995Z,40.70
2018-03-25T17:00:10.104Z,41.00
2018-03-25T17:02:37.911Z,42.70
2018-03-25T17:05:05.681Z,42.10
2018-03-25T17:07:34.620Z,41.60
2018-03-25T17:10:02.522Z,42.20
2018-03-25T17:12:30.275Z,42.70
2018-03-25T17:14:58.173Z,42.80
2018-03-25T17:17:26.113Z,42.60
2018-03-25T17:19:54.742Z,42.60
2018-03-25T17:22:25.815Z,42.60
2018-03-25T17:24:54.054Z,43.30
2018-03-25T17:27:22.662Z,44.80
2018-03-25T17:29:50.524Z,44.80
2018-03-25T17:32:22.246Z,46.00
2018-03-25T17:34:50.265Z,46.60
2018-03-25T17:37:19.264Z,45.40
2018-03-25T17:39:47.785Z,46.50
2018-03-25T17:42:15.570Z,46.70
2018-03-25T17:44:43.676Z,46.90
2018-03-25T17:47:11.668Z,47.00
2018-03-25T17:49:39.662Z,47.10
2018-03-25T17:52:07.680Z,47.20
2018-03-25T17:54:35.629Z,47.90
2018-03-25T17:57:07.557Z,47.20
2018-03-25T17:59:35.464Z,47.70
2018-03-25T18:02:07.751Z,47.30
2018-03-25T18:04:36.746Z,47.30
2018-03-25T18:07:04.710Z,47.20
2018-03-25T18:09:32.689Z,47.10
2018-03-25T18:12:01.140Z,47.20
2018-03-25T18:14:29.720Z,46.70
2018-03-25T18:16:58.395Z,46.50
2018-03-25T18:19:26.553Z,47.50
2018-03-25T18:21:54.512Z,47.80
2018-03-25T18:24:22.551Z,47.90
2018-03-25T18:26:55.219Z,48.20
2018-03-25T18:29:23.762Z,48.10
2018-03-25T18:31:52.388Z,48.00
2018-03-25T18:34:21.642Z,48.50
2018-03-25T18:36:55.471Z,48.30
2018-03-25T18:39:24.016Z,48.20
2018-03-25T18:41:51.981Z,48.20
2018-03-25T18:44:20.025Z,48.10
2018-03-25T18:46:48.805Z,48.40
2018-03-25T18:49:16.776Z,48.40
2018-03-25T18:51:44.750Z,49.00
2018-03-25T18:54:12.620Z,48.70
2018-03-25T18:56:43.846Z,48.60
2018-03-25T18:59:12.251Z,48.70
2018-03-25T19:01:44.910Z,48.50
2018-03-25T19:04:12.998Z,49.10
2018-03-25T19:06:40.767Z,48.30
2018-03-25T19:09:08.737Z,49.30
2018-03-25T19:11:40.199Z,48.60
2018-03-25T19:14:08.253Z,49.40
2018-03-25T19:16:36.408Z,49.50
2018-03-25T19:19:04.239Z,49.20
2018-03-25T19:21:32.794Z,49.70
2018-03-25T19:24:00.651Z,49.70
2018-03-25T19:26:28.437Z,50.00
2018-03-25T19:28:56.514Z,49.20
2018-03-25T19:31:24.408Z,49.80
2018-03-25T19:33:53.477Z,49.40
2018-03-25T19:36:27.685Z,49.40
2018-03-25T19:38:56.056Z,48.60
2018-03-25T19:41:31.044Z,49.50
2018-03-25T19:46:36.087Z,49.80
2018-03-25T19:49:04.878Z,49.10
2018-03-25T19:51:32.762Z,49.90
2018-03-25T19:54:01.002Z,49.50
2018-03-25T19:56:29.653Z,49.80
2018-03-25T19:58:57.823Z,49.80
2018-03-25T20:01:26.562Z,50.20
2018-03-25T20:03:55.087Z,49.80
2018-03-25T20:06:26.997Z,49.80
2018-03-25T20:08:55.649Z,50.20
2018-03-25T20:11:24.479Z,50.20
2018-03-25T20:13:52.159Z,50.00
2018-03-25T20:16:20.590Z,50.30
2018-03-25T20:18:48.654Z,49.50
2018-03-25T20:21:17.992Z,50.00
2018-03-25T20:23:45.804Z,50.10
2018-03-25T20:26:13.491Z,50.60
2018-03-25T20:28:41.258Z,49.90
2018-03-25T20:31:09.299Z,49.90
2018-03-25T20:33:42.999Z,50.80
2018-03-25T20:36:10.670Z,50.70
2018-03-25T20:38:38.511Z,50.30
2018-03-25T20:41:06.238Z,50.90
2018-03-25T20:43:34.725Z,49.70
2018-03-25T20:46:02.516Z,49.60
2018-03-25T20:48:30.290Z,50.40
2018-03-25T20:50:58.078Z,50.80
2018-03-25T20:53:25.924Z,50.80
2018-03-25T20:55:53.689Z,51.00
2018-03-25T20:58:26.110Z,51.00
2018-03-25T21:00:55.366Z,50.80
2018-03-25T21:03:23.122Z,50.70
2018-03-25T21:05:50.997Z,51.50
2018-03-25T21:08:22.059Z,51.90
2018-03-25T21:10:49.801Z,51.30
2018-03-25T21:13:18.074Z,51.60
2018-03-25T21:15:45.835Z,52.00
2018-03-25T21:18:13.537Z,51.00
2018-03-25T21:20:42.342Z,52.10
2018-03-25T21:23:10.196Z,52.10
2018-03-25T21:25:38.566Z,52.30
2018-03-25T21:28:07.084Z,53.10
2018-03-25T21:30:35.033Z,53.00
2018-03-25T21:33:07.368Z,52.60
2018-03-25T21:35:35.151Z,52.60
2018-03-25T21:38:02.872Z,52.70
2018-03-25T21:40:31.547Z,53.80
2018-03-25T21:42:59.166Z,53.80
2018-03-25T21:45:27.701Z,52.40
2018-03-25T21:47:56.246Z,52.40
2018-03-25T21:50:24.033Z,53.10
2018-03-25T21:52:51.728Z,53.10
2018-03-25T21:55:19.470Z,51.80
2018-03-25T21:57:50.841Z,52.80
2018-03-25T22:00:18.725Z,53.20
2018-03-25T22:02:46.534Z,52.70
2018-03-25T22:05:14.208Z,53.60
2018-03-25T22:07:41.943Z,53.40
2018-03-25T22:10:10.566Z,53.80
2018-03-25T22:12:38.335Z,54.20
2018-03-25T22:15:06.183Z,53.60
2018-03-25T22:17:34.683Z,53.70
2018-03-25T22:20:02.579Z,53.30
2018-03-25T22:22:34.749Z,53.40
2018-03-25T22:25:02.498Z,53.60
2018-03-25T22:27:30.997Z,54.00
2018-03-25T22:29:59.460Z,53.80
2018-03-25T22:32:31.092Z,53.70
2018-03-25T22:34:58.971Z,52.70
2018-03-25T22:37:26.669Z,53.60
2018-03-25T22:39:55.092Z,53.70
2018-03-25T22:42:22.743Z,53.70
2018-03-25T22:44:50.585Z,53.50
2018-03-25T22:47:18.215Z,53.50
2018-03-25T22:49:46.166Z,53.80
2018-03-25T22:52:13.923Z,54.40
2018-03-25T22:54:41.695Z,54.40
2018-03-25T22:57:12.600Z,53.70
2018-03-25T22:59:40.267Z,53.00
2018-03-25T23:02:08.837Z,53.50
2018-03-25T23:04:36.617Z,53.40
2018-03-25T23:07:04.306Z,54.10
2018-03-25T23:09:35.812Z,54.40
2018-03-25T23:12:04.234Z,55.30
2018-03-25T23:14:32.039Z,55.30
2018-03-25T23:17:00.683Z,55.80
2018-03-25T23:19:28.463Z,55.80
2018-03-25T23:21:56.520Z,55.40
2018-03-25T23:24:24.342Z,55.40
2018-03-25T23:26:52.046Z,54.90
2018-03-25T23:29:20.488Z,55.10
2018-03-25T23:31:48.709Z,55.40
2018-03-25T23:34:22.049Z,54.80
2018-03-25T23:36:49.733Z,54.60
2018-03-25T23:39:20.460Z,55.80
2018-03-25T23:41:48.264Z,54.70
2018-03-25T23:44:15.922Z,55.50
2018-03-25T23:46:44.692Z,55.20
2018-03-25T23:49:12.584Z,55.10
2018-03-25T23:51:41.213Z,55.50
2018-03-25T23:54:08.951Z,54.90
2018-03-25T23:56:37.483Z,54.70
2018-03-25T23:59:05.244Z,54.60
